Time;durP1;ratioP1;P1;durP2;ratioP2;P2;SDS_P1;SDS_P2;PMS_P1;PMS_P2;Temp;Humidity;BMP_temperature;BMP_pressure;BME280_temperature;BME280_humidity;BME280_pressure;Samples;Min_cycle;Max_cycle;Signal;HPM_P1;HPM_P2
2022/02/04 00:09:11;;;;;;;45.30;25.75;;;;;;;6.56;66.86;101028.69;5077221;28;20471;-72
2022/02/04 00:28:21;;;;;;;34.10;22.10;;;;;;;6.39;67.30;101023.00;5076826;28;20127;-72
2022/02/04 00:31:22;;;;;;;40.83;24.15;;;;;;;6.36;68.61;101030.00;5058843;28;20055;-72
2022/02/04 00:33:43;;;;;;;34.15;21.67;;;;;;;6.37;68.50;101011.47;5075886;28;20117;-72
2022/02/04 00:36:18;;;;;;;38.55;22.77;;;;;;;6.43;67.63;101012.97;5076473;28;20070;-72
2022/02/04 00:38:48;;;;;;;37.22;20.70;;;;;;;6.46;67.08;101012.34;5058418;28;20024;-72
2022/02/04 00:41:20;;;;;;;34.08;20.27;;;;;;;6.44;67.44;101009.06;5058881;28;20032;-72
2022/02/04 00:43:48;;;;;;;32.38;19.83;;;;;;;6.45;67.34;100999.66;5058313;28;20031;-72
2022/02/04 00:46:20;;;;;;;33.67;20.80;;;;;;;6.41;67.77;100996.72;5058281;28;20032;-72
2022/02/04 00:48:55;;;;;;;36.90;17.75;;;;;;;6.37;67.61;101000.41;5058204;28;20027;-72
2022/02/04 00:51:33;;;;;;;35.83;20.70;;;;;;;6.31;67.50;100996.97;5058182;28;20068;-72
2022/02/04 00:57:02;;;;;;;42.60;21.63;;;;;;;6.30;67.84;100987.84;5076347;28;20461;-72
2022/02/04 01:13:38;;;;;;;32.67;18.70;;;;;;;6.20;68.77;100982.56;5076266;28;20486;-72
2022/02/04 01:27:20;;;;;;;23.25;13.25;;;;;;;6.11;69.05;100973.41;5075739;28;20130;-72
2022/02/04 01:30:03;;;;;;;30.00;16.40;;;;;;;6.09;69.18;100964.63;5057408;28;20064;-72
2022/02/04 01:32:29;;;;;;;29.02;14.95;;;;;;;6.12;69.15;100963.97;5057404;28;20036;-72
2022/02/04 01:34:57;;;;;;;25.02;15.05;;;;;;;6.15;68.75;100963.34;5057509;28;20052;-72
2022/02/04 01:37:26;;;;;;;28.92;15.48;;;;;;;6.11;68.74;100956.81;5057261;28;20029;-72
2022/02/04 01:39:51;;;;;;;30.27;16.30;;;;;;;5.97;69.03;100942.28;5057217;28;20028;-72
2022/02/04 01:42:20;;;;;;;26.45;16.05;;;;;;;5.97;68.87;100959.66;5057707;28;20166;-72
2022/02/04 01:44:51;;;;;;;31.05;17.98;;;;;;;5.91;69.45;100960.03;5057092;28;20032;-72
2022/02/04 01:47:19;;;;;;;32.38;17.10;;;;;;;5.90;69.71;100950.13;5057605;28;20059;-72
2022/02/04 01:49:47;;;;;;;33.25;18.77;;;;;;;5.95;69.83;100944.50;5057087;28;20051;-72
2022/02/04 01:52:16;;;;;;;37.50;20.98;;;;;;;6.03;69.39;100950.13;5057834;28;20486;-72
2022/02/04 01:54:44;;;;;;;32.88;20.65;;;;;;;6.02;69.07;100953.19;5057909;28;20482;-72
2022/02/04 01:57:12;;;;;;;31.70;19.67;;;;;;;5.98;69.74;100954.94;5057205;28;20025;-72
2022/02/04 01:59:40;;;;;;;32.92;19.35;;;;;;;5.96;69.83;100948.91;5075295;28;20028;-72
2022/02/04 02:02:07;;;;;;;30.85;18.92;;;;;;;5.92;69.20;100942.41;5074943;28;20056;-72
2022/02/04 02:04:33;;;;;;;33.17;20.15;;;;;;;5.92;69.66;100936.88;5074976;28;20040;-72
2022/02/04 02:07:05;;;;;;;33.13;19.75;;;;;;;5.90;69.42;100936.31;5056740;28;20410;-72
2022/02/04 02:10:16;;;;;;;31.00;18.48;;;;;;;5.98;69.40;100941.13;5057181;28;20024;-72
2022/02/04 02:12:25;;;;;;;29.83;17.73;;;;;;;5.93;69.80;100928.25;5066193;28;20036;-72
2022/02/04 02:15:33;;;;;;;29.10;18.10;;;;;;;5.92;69.81;100923.06;5056521;28;20031;-71
2022/02/04 02:35:25;;;;;;;21.63;15.00;;;;;;;6.19;68.72;100895.28;5074421;28;20059;-71
2022/02/04 02:48:19;;;;;;;25.30;15.48;;;;;;;6.41;68.77;100899.97;5074521;28;20040;-71
2022/02/04 02:58:37;;;;;;;;;;;;;;;6.55;67.64;100883.25;5074270;28;20040;-72
2022/02/04 03:01:05;;;;;;;16.60;12.02;;;;;;;6.54;67.24;100876.09;5055642;28;19931;-72
2022/02/04 03:03:35;;;;;;;17.65;11.38;;;;;;;6.56;67.45;100879.38;5055862;28;20153;-71
2022/02/04 03:06:06;;;;;;;17.45;11.15;;;;;;;6.44;66.66;100879.13;5056091;28;20387;-71
2022/02/04 03:08:32;;;;;;;17.02;12.25;;;;;;;6.37;67.52;100868.56;5056037;28;20126;-71
2022/02/04 03:11:00;;;;;;;16.17;10.75;;;;;;;6.28;68.20;100863.00;5055724;28;20029;-71
2022/02/04 03:13:32;;;;;;;17.65;10.55;;;;;;;6.22;68.40;100853.19;5056597;28;20395;-71
2022/02/04 03:16:10;;;;;;;18.77;9.98;;;;;;;6.24;68.62;100862.00;5055669;28;20031;-71
2022/02/04 03:18:41;;;;;;;18.85;11.07;;;;;;;6.27;68.14;100863.28;5073353;28;20472;-71
2022/02/04 03:23:40;;;;;;;32.38;17.95;;;;;;;6.32;67.90;100873.41;5073613;28;20129;-72
2022/02/04 03:26:12;;;;;;;38.28;22.15;;;;;;;6.33;67.62;100872.25;5055657;28;20024;-72
2022/02/04 03:28:40;;;;;;;30.40;19.77;;;;;;;6.40;67.21;100869.88;5055706;28;20033;-71
2022/02/04 03:31:12;;;;;;;29.25;16.92;;;;;;;6.40;67.45;100878.16;5059709;28;20505;-71
2022/02/04 03:33:42;;;;;;;27.08;16.08;;;;;;;6.38;67.21;100881.22;5059687;28;20090;-72
2022/02/04 03:36:11;;;;;;;29.75;18.00;;;;;;;6.46;67.40;100890.72;5059926;28;20441;-72
2022/02/04 03:38:39;;;;;;;21.45;13.40;;;;;;;6.42;67.27;100889.72;5059918;28;20028;-72
2022/02/04 03:41:11;;;;;;;25.35;16.35;;;;;;;6.49;67.50;100892.81;5059353;28;20040;-71
2022/02/04 03:43:37;;;;;;;27.17;16.75;;;;;;;6.55;67.28;100895.16;5077438;28;20054;-72
2022/02/04 03:46:07;;;;;;;22.73;14.45;;;;;;;6.56;66.91;100891.25;5059940;28;20028;-71
2022/02/04 03:48:43;;;;;;;16.45;9.93;;;;;;;6.69;65.25;100900.56;5077360;28;20032;-72
2022/02/04 03:51:14;;;;;;;19.77;12.63;;;;;;;6.81;64.51;100899.94;5077276;28;20028;-71
2022/02/04 03:53:49;;;;;;;19.35;12.18;;;;;;;6.81;64.83;100902.72;5059241;28;20094;-72
2022/02/04 03:56:19;;;;;;;11.50;8.75;;;;;;;6.81;64.94;100895.22;5059700;28;20028;-72
2022/02/04 03:58:47;;;;;;;41.67;25.15;;;;;;;6.92;64.46;100904.06;5059153;28;20064;-72
2022/02/04 04:01:13;;;;;;;52.75;29.33;;;;;;;6.92;65.36;100906.00;5059012;28;20489;-72
2022/02/04 04:03:43;;;;;;;61.35;32.05;;;;;;;6.88;65.18;100908.63;5059030;28;20032;-71
2022/02/04 04:06:13;;;;;;;52.90;30.25;;;;;;;6.85;65.47;100902.91;5077235;28;20024;-72
2022/02/04 04:08:44;;;;;;;34.33;21.55;;;;;;;6.85;65.14;100919.50;5059123;28;20070;-72
2022/02/04 04:11:12;;;;;;;36.25;22.38;;;;;;;6.73;65.82;100920.91;5059894;28;20388;-72
2022/02/04 04:13:44;;;;;;;21.90;12.35;;;;;;;6.69;65.88;100922.69;5059809;28;20035;-72
2022/02/04 04:16:14;;;;;;;37.90;22.15;;;;;;;6.76;65.28;100928.56;5059476;28;20028;-71
2022/02/04 04:18:39;;;;;;;37.50;24.42;;;;;;;6.66;65.51;100923.34;5059060;28;20063;-71
2022/02/04 04:21:08;;;;;;;34.40;22.50;;;;;;;6.59;66.57;100931.25;5058693;28;20060;-72
2022/02/04 04:23:36;;;;;;;33.45;21.77;;;;;;;6.65;66.00;100937.47;5059200;28;20481;-71
2022/02/04 04:26:04;;;;;;;32.95;20.83;;;;;;;6.62;66.46;100932.59;5058954;28;20033;-72
2022/02/04 04:28:32;;;;;;;17.58;12.00;;;;;;;6.56;66.68;100931.91;5058612;28;20071;-72
2022/02/04 04:31:02;;;;;;;14.50;10.07;;;;;;;6.42;66.19;100933.94;5058867;28;20538;-72
2022/02/04 04:33:30;;;;;;;25.52;12.45;;;;;;;6.72;65.09;100932.31;5058551;28;20024;-72
2022/02/04 04:35:56;;;;;;;24.58;12.95;;;;;;;6.57;65.57;100937.13;5058211;28;20045;-72
2022/02/04 04:38:40;;;;;;;18.65;8.50;;;;;;;6.54;65.92;100942.47;5058665;28;20025;-71
2022/02/04 04:41:42;;;;;;;14.85;7.30;;;;;;;6.54;66.75;100936.94;5075700;28;20031;-72
2022/02/04 05:30:58;;;;;;;12.27;8.65;;;;;;;6.99;65.39;100939.56;5075690;28;20047;-72
2022/02/04 05:33:24;;;;;;;15.05;8.43;;;;;;;7.03;65.90;100933.09;5057317;28;20063;-72
2022/02/04 05:35:50;;;;;;;10.20;7.55;;;;;;;7.01;65.05;100929.81;5057063;28;20044;-72
2022/02/04 05:38:22;;;;;;;12.15;8.18;;;;;;;7.05;64.41;100941.06;5075570;28;20024;-72
2022/02/04 05:40:50;;;;;;;16.65;9.20;;;;;;;7.07;64.75;100936.00;5057602;28;20482;-71
2022/02/04 05:43:31;;;;;;;17.27;9.88;;;;;;;7.12;64.75;100937.81;5057141;28;20018;-72
2022/02/04 05:46:07;;;;;;;13.23;8.45;;;;;;;7.08;64.97;100938.47;5057729;28;20036;-72
2022/02/04 05:48:44;;;;;;;13.35;8.57;;;;;;;7.01;64.95;100937.28;5057399;28;20378;-72
2022/02/04 05:59:09;;;;;;;13.05;8.10;;;;;;;6.93;65.22;100916.78;5074810;28;20165;-72
2022/02/04 06:04:17;;;;;;;13.68;8.90;;;;;;;6.96;65.50;100926.38;5074661;28;20494;-71
2022/02/04 06:22:44;;;;;;;23.23;11.60;;;;;;;6.98;64.73;100907.53;5074497;28;20078;-72
2022/02/04 06:25:11;;;;;;;22.30;12.18;;;;;;;6.99;65.03;100909.97;5056714;28;20024;-72
2022/02/04 06:27:37;;;;;;;22.35;13.05;;;;;;;6.79;65.07;100878.16;5074903;28;20350;-73
2022/02/04 06:30:05;;;;;;;20.83;12.82;;;;;;;7.04;65.01;100909.00;5057022;28;20463;-73
2022/02/04 06:32:33;;;;;;;16.08;10.25;;;;;;;7.08;65.75;100902.50;5056458;28;20093;-73
2022/02/04 06:35:05;;;;;;;20.23;13.50;;;;;;;7.14;64.86;100894.88;5056051;28;20060;-72
2022/02/04 06:37:34;;;;;;;28.55;16.63;;;;;;;7.19;65.02;100891.09;5056290;28;20035;-71
2022/02/04 06:40:03;;;;;;;24.85;18.38;;;;;;;7.17;64.53;100893.38;5056414;28;20099;-71
2022/02/04 06:42:29;;;;;;;29.95;19.45;;;;;;;7.26;64.41;100897.00;5056172;28;20039;-71
2022/02/04 06:44:57;;;;;;;23.60;17.20;;;;;;;7.18;64.55;100900.53;5056092;28;20021;-71
2022/02/04 06:47:27;;;;;;;35.17;20.70;;;;;;;7.22;64.75;100901.53;5056074;28;20485;-71
2022/02/04 06:49:53;;;;;;;30.27;20.42;;;;;;;7.20;64.43;100904.63;5056059;28;20028;-71
2022/02/04 06:52:19;;;;;;;34.10;22.90;;;;;;;7.22;64.53;100899.59;5055960;28;20039;-70
2022/02/04 06:54:45;;;;;;;23.98;17.35;;;;;;;7.26;65.06;100897.00;5055952;28;20032;-72
2022/02/04 06:57:10;;;;;;;31.15;20.25;;;;;;;7.29;64.73;100890.78;5055939;28;20029;-72
2022/02/04 06:59:38;;;;;;;34.00;22.92;;;;;;;7.38;64.28;100882.50;5055901;28;20037;-71
2022/02/04 07:02:04;;;;;;;30.40;21.20;;;;;;;7.45;65.06;100888.38;5056417;28;20025;-71
2022/02/04 07:04:35;;;;;;;27.58;20.83;;;;;;;7.46;64.31;100884.50;5055942;28;20485;-71
2022/02/04 07:07:05;;;;;;;31.17;18.80;;;;;;;7.51;64.35;100893.44;5056108;28;20024;-71
2022/02/04 07:09:46;;;;;;;21.15;16.52;;;;;;;7.58;64.15;100881.88;5056151;28;20032;-71
2022/02/04 07:12:32;;;;;;;19.38;14.23;;;;;;;7.66;63.78;100877.47;5073803;28;20031;-71
2022/02/04 07:20:02;;;;;;;22.10;13.20;;;;;;;7.97;62.88;100866.19;5073397;28;20039;-72
2022/02/04 07:22:31;;;;;;;19.15;12.50;;;;;;;8.10;62.82;100860.47;5056225;28;20081;-72
2022/02/04 07:25:01;;;;;;;23.33;14.05;;;;;;;8.22;62.70;100857.00;5074136;28;20029;-72
2022/02/04 07:27:27;;;;;;;21.65;13.32;;;;;;;8.32;62.42;100859.44;5056174;28;20039;-72
2022/02/04 07:29:56;;;;;;;24.55;12.90;;;;;;;8.48;62.28;100864.47;5055441;28;20090;-72
2022/02/04 07:43:04;;;;;;;23.98;15.45;;;;;;;9.21;60.38;100859.47;5073570;28;20085;-72
2022/02/04 07:45:34;;;;;;;23.13;14.55;;;;;;;9.36;60.85;100866.41;5073579;28;20028;-72
2022/02/04 07:48:06;;;;;;;35.25;18.95;;;;;;;9.53;60.15;100855.16;5074109;28;20059;-72
2022/02/04 07:50:34;;;;;;;29.85;17.80;;;;;;;9.74;59.99;100871.00;5057061;28;20059;-72
2022/02/04 07:53:03;;;;;;;26.05;16.55;;;;;;;9.84;58.70;100860.28;5056702;28;20036;-72
2022/02/04 07:55:29;;;;;;;22.48;14.60;;;;;;;9.87;59.26;100859.59;5055382;28;20093;-72
2022/02/04 07:57:58;;;;;;;21.75;14.45;;;;;;;10.02;59.22;100860.94;5055331;28;20024;-72
2022/02/04 08:00:26;;;;;;;19.20;13.30;;;;;;;10.11;58.18;100864.41;5055935;28;20035;-72
2022/02/04 08:02:52;;;;;;;25.33;12.98;;;;;;;10.09;57.10;100861.19;5055145;28;20086;-72
2022/02/04 08:05:26;;;;;;;21.38;12.07;;;;;;;10.29;54.98;100872.63;5055556;28;20037;-72
2022/02/04 08:08:14;;;;;;;10.52;5.25;;;;;;;10.56;53.04;100871.16;5055091;28;20052;-72
2022/02/04 08:13:46;;;;;;;7.07;4.53;;;;;;;10.45;53.50;100871.63;5072866;28;20028;-72
2022/02/04 08:16:37;;;;;;;15.20;8.07;;;;;;;10.67;53.02;100861.22;5057627;28;20038;-72
2022/02/04 08:34:55;;;;;;;19.83;10.55;;;;;;;11.85;50.80;100859.28;5076821;28;20036;-77
2022/02/04 08:51:11;;;;;;;23.95;9.52;;;;;;;13.06;47.34;100862.44;5080085;28;20048;-76
2022/02/04 08:56:04;;;;;;;18.98;8.88;;;;;;;12.74;48.45;100856.06;5077469;28;20036;-77
2022/02/04 09:06:10;;;;;;;19.80;10.35;;;;;;;13.63;47.80;100853.38;5076912;28;20082;-76
2022/02/04 09:08:44;;;;;;;30.95;19.55;;;;;;;13.70;47.18;100849.91;5059292;28;20025;-76
2022/02/04 09:11:14;;;;;;;19.40;10.48;;;;;;;13.82;47.65;100840.53;5059155;28;20097;-76
2022/02/04 09:19:14;;;;;;;13.82;7.88;;;;;;;13.41;49.44;100840.09;5077009;28;20305;-76
2022/02/04 09:24:12;;;;;;;9.15;5.55;;;;;;;13.32;48.24;100850.69;5076311;28;20128;-76
2022/02/04 09:26:39;;;;;;;11.40;5.68;;;;;;;12.66;49.45;100854.25;5058757;28;20558;-76
2022/02/04 09:29:05;;;;;;;10.32;5.93;;;;;;;12.50;50.85;100855.06;5058513;28;20115;-77
2022/02/04 09:31:31;;;;;;;8.80;6.20;;;;;;;12.40;51.57;100843.63;5076813;28;20103;-76
2022/02/04 09:33:59;;;;;;;11.10;5.90;;;;;;;12.52;51.69;100843.56;5076237;28;20036;-77
2022/02/04 09:36:27;;;;;;;15.05;7.15;;;;;;;12.81;51.61;100820.75;5058017;28;20052;-76
2022/02/04 09:38:58;;;;;;;17.45;8.60;;;;;;;12.82;50.62;100821.53;5058076;28;20067;-76
2022/02/04 09:41:26;;;;;;;13.55;7.47;;;;;;;12.90;51.45;100828.94;5058290;28;20360;-76
2022/02/04 09:46:40;;;;;;;17.65;8.82;;;;;;;12.62;52.31;100812.28;5076418;28;20548;-76
2022/02/04 09:49:19;;;;;;;11.48;7.63;;;;;;;12.59;52.42;100816.63;5057933;28;20082;-77
2022/02/04 10:04:24;;;;;;;17.10;8.45;;;;;;;12.40;53.24;100810.94;5058164;28;20032;-77
2022/02/04 10:08:59;;;;;;;11.95;7.18;;;;;;;12.05;54.69;100816.41;5077098;28;20040;-76
2022/02/04 10:19:39;;;;;;;11.75;6.40;;;;;;;12.16;55.45;100789.63;5076833;28;20029;-76
2022/02/04 10:22:05;;;;;;;12.43;7.30;;;;;;;12.35;55.50;100788.88;5059862;28;20367;-77
2022/02/04 10:24:33;;;;;;;16.27;6.32;;;;;;;12.48;56.27;100784.84;5060552;28;20173;-76
2022/02/04 10:27:19;;;;;;;13.25;5.95;;;;;;;12.57;55.33;100779.91;5059564;28;20033;-77
2022/02/04 10:29:51;;;;;;;12.07;6.93;;;;;;;12.72;55.08;100747.53;5060508;28;20028;-77
2022/02/04 10:32:18;;;;;;;8.82;5.40;;;;;;;13.10;53.81;100771.09;5061371;28;20374;-76
2022/02/04 10:35:02;;;;;;;16.13;9.25;;;;;;;13.02;53.94;100764.56;5061817;28;20056;-76
2022/02/04 10:37:34;;;;;;;14.35;8.00;;;;;;;12.90;54.20;100770.28;5061625;28;20109;-76
2022/02/04 10:48:29;;;;;;;14.25;8.02;;;;;;;13.30;53.27;100747.63;5058631;28;20055;-76
2022/02/04 10:59:11;;;;;;;13.57;6.43;;;;;;;13.69;50.94;100749.56;5076070;28;20028;-76
2022/02/04 11:04:28;;;;;;;12.65;6.00;;;;;;;13.76;46.87;100749.72;5076091;28;20085;-76
2022/02/04 11:33:15;;;;;;;15.50;10.32;;;;;;;15.11;44.06;100709.09;5074517;28;20044;-77
2022/02/04 11:52:30;;;;;;;9.60;4.63;;;;;;;14.73;42.00;100688.59;5078180;28;20028;-77
2022/02/04 11:55:00;;;;;;;11.60;5.15;;;;;;;15.00;41.73;100702.53;5059534;28;20119;-77
2022/02/04 11:57:31;;;;;;;13.73;4.85;;;;;;;14.93;41.49;100697.66;5077366;28;20032;-76
2022/02/04 12:00:16;;;;;;;9.48;4.70;;;;;;;14.83;41.94;100681.50;5059802;28;20031;-76
2022/02/04 12:02:42;;;;;;;11.35;4.55;;;;;;;14.97;42.25;100695.72;5059532;28;20024;-77
2022/02/04 12:05:11;;;;;;;12.52;5.32;;;;;;;15.05;41.66;100688.19;5059575;28;20043;-76
2022/02/04 12:07:47;;;;;;;7.93;4.68;;;;;;;14.86;42.49;100680.75;5059948;28;20455;-76
2022/02/04 12:10:13;;;;;;;6.93;4.55;;;;;;;15.08;42.16;100677.03;5059488;28;20131;-77
2022/02/04 12:12:54;;;;;;;9.32;4.53;;;;;;;15.31;42.42;100676.91;5059436;28;20072;-77
2022/02/04 12:15:29;;;;;;;10.77;3.60;;;;;;;15.36;42.49;100665.34;5060421;28;20131;-77
2022/02/04 12:18:03;;;;;;;9.02;5.53;;;;;;;15.03;43.30;100663.38;5060584;28;20021;-77
2022/02/04 12:20:47;;;;;;;4.32;3.03;;;;;;;14.88;43.89;100665.19;5060945;28;20118;-76
2022/02/04 12:23:28;;;;;;;;;;;;;;;14.99;44.36;100656.91;5060581;28;20032;-77
2022/02/04 12:25:58;;;;;;;5.88;2.97;;;;;;;14.87;45.02;100654.38;5061285;28;19913;-76
2022/02/04 12:28:42;;;;;;;7.00;3.92;;;;;;;14.76;45.40;100653.41;5079360;28;20433;-76
2022/02/04 12:31:14;;;;;;;7.55;3.50;;;;;;;14.84;45.97;100649.50;5061417;28;20417;-76
2022/02/04 12:33:43;;;;;;;8.80;5.05;;;;;;;14.77;46.20;100644.63;5061611;28;20036;-77
2022/02/04 12:36:20;;;;;;;9.27;5.32;;;;;;;14.70;46.27;100649.31;5057056;28;20049;-76
2022/02/04 12:38:47;;;;;;;15.50;8.13;;;;;;;14.62;47.07;100637.22;5057236;28;20033;-76
2022/02/04 12:41:29;;;;;;;10.43;5.30;;;;;;;14.70;47.09;100638.09;5057143;28;20566;-77
2022/02/04 12:43:58;;;;;;;8.38;5.05;;;;;;;14.78;47.15;100623.81;5058316;28;20025;-76
2022/02/04 12:46:25;;;;;;;10.25;5.75;;;;;;;14.70;47.89;100622.13;5059347;28;20029;-76
2022/02/04 12:48:59;;;;;;;14.88;5.55;;;;;;;14.56;47.98;100597.53;5059007;28;20036;-77
2022/02/04 12:54:29;;;;;;;13.52;7.82;;;;;;;14.61;48.57;100602.81;5061025;28;20040;-76
2022/02/04 13:02:01;;;;;;;22.35;8.95;;;;;;;14.54;49.61;100605.53;5060490;28;20033;-76
2022/02/04 13:10:32;;;;;;;12.00;5.80;;;;;;;14.34;49.86;100604.00;5060281;28;20033;-77
2022/02/04 13:13:07;;;;;;;5.32;3.65;;;;;;;13.87;51.49;100592.09;5059726;28;20040;-76
2022/02/04 13:15:35;;;;;;;7.35;4.20;;;;;;;13.83;52.07;100601.63;5061151;28;20032;-77
2022/02/04 13:18:06;;;;;;;12.30;5.28;;;;;;;13.94;52.36;100594.19;5060930;28;20069;-76
2022/02/04 13:20:37;;;;;;;7.60;6.00;;;;;;;14.10;52.11;100591.25;5062187;28;20035;-77
2022/02/04 13:23:10;;;;;;;18.70;9.13;;;;;;;14.05;52.30;100597.97;5059836;28;20120;-77
2022/02/04 13:25:41;;;;;;;16.75;7.07;;;;;;;14.04;52.34;100590.78;5059224;28;20029;-77
2022/02/04 13:28:12;;;;;;;9.77;6.25;;;;;;;14.07;52.42;100583.63;5059520;28;20037;-76
2022/02/04 13:30:42;;;;;;;17.55;9.65;;;;;;;14.13;52.43;100587.72;5059722;28;20029;-77
2022/02/04 13:33:19;;;;;;;21.48;11.00;;;;;;;14.13;52.13;100582.91;5061224;28;20029;-77
2022/02/04 13:36:00;;;;;;;12.82;6.70;;;;;;;14.08;52.22;100579.63;5068603;28;20052;-77
2022/02/04 13:38:41;;;;;;;9.38;7.00;;;;;;;14.19;51.55;100577.81;5058122;28;20443;-77
2022/02/04 13:41:23;;;;;;;16.75;8.07;;;;;;;14.26;52.04;100575.09;5057829;28;20033;-77
2022/02/04 13:46:37;;;;;;;10.15;4.15;;;;;;;14.65;51.77;100570.06;5075438;28;20039;-76
2022/02/04 13:52:02;;;;;;;9.93;5.70;;;;;;;15.12;50.28;100574.19;5075029;28;20147;-76
2022/02/04 13:57:42;;;;;;;25.83;10.13;;;;;;;15.18;49.58;100578.28;5074865;28;20044;-76
2022/02/04 14:00:20;;;;;;;10.98;6.97;;;;;;;15.07;50.04;100579.31;5058091;28;20374;-76
2022/02/04 14:02:52;;;;;;;12.48;6.75;;;;;;;14.84;50.92;100571.06;5057504;28;20459;-76
2022/02/04 14:05:58;;;;;;;11.10;7.63;;;;;;;14.80;51.38;100565.41;5056948;28;20028;-76
2022/02/04 14:08:32;;;;;;;16.90;9.15;;;;;;;14.72;51.94;100563.72;5075224;28;20028;-76
2022/02/04 14:11:00;;;;;;;;;;;;;;;14.70;52.32;100554.91;5057900;28;20051;-77
2022/02/04 14:13:28;;;;;;;17.50;9.20;;;;;;;14.49;52.85;100560.22;5056631;28;19947;-76
2022/02/04 14:15:59;;;;;;;21.50;10.50;;;;;;;14.49;52.92;100543.44;5076119;28;20024;-77
2022/02/04 14:18:30;;;;;;;9.43;5.50;;;;;;;14.34;53.43;100548.03;5057090;28;20062;-77
2022/02/04 14:20:59;;;;;;;10.93;4.60;;;;;;;14.47;53.63;100548.56;5054041;28;20032;-77
2022/02/04 14:23:30;;;;;;;11.02;5.97;;;;;;;14.40;53.41;100533.31;5074721;28;20353;-77
2022/02/04 14:26:06;;;;;;;14.45;4.97;;;;;;;14.58;53.64;100539.16;5057219;28;20032;-76
2022/02/04 14:28:50;;;;;;;10.88;5.38;;;;;;;14.52;53.86;100546.28;5075682;28;20103;-77
2022/02/04 14:31:27;;;;;;;17.75;6.72;;;;;;;14.68;53.12;100544.06;5057844;28;20032;-77
2022/02/04 14:50:56;;;;;;;9.23;4.20;;;;;;;15.07;51.77;100524.09;5076358;28;20067;-75
2022/02/04 14:53:24;;;;;;;11.43;4.65;;;;;;;15.20;51.77;100522.63;5061580;28;20435;-75
2022/02/04 14:59:04;;;;;;;12.48;5.55;;;;;;;14.95;52.35;100518.75;5075171;28;20040;-75
2022/02/04 15:01:35;;;;;;;22.30;9.65;;;;;;;14.91;52.70;100517.91;5057029;28;20032;-76
2022/02/04 15:04:14;;;;;;;17.83;7.35;;;;;;;14.88;52.82;100511.09;5075821;28;20384;-77
2022/02/04 15:06:41;;;;;;;28.48;12.57;;;;;;;14.93;52.85;100513.56;5075459;28;20074;-75
2022/02/04 15:09:09;;;;;;;23.60;11.63;;;;;;;14.57;53.54;100506.75;5056507;28;20123;-75
2022/02/04 15:11:39;;;;;;;17.23;7.45;;;;;;;14.50;53.51;100512.28;5056940;28;20029;-75
2022/02/04 15:14:07;;;;;;;17.98;8.65;;;;;;;14.33;54.45;100512.84;5057443;28;20086;-75
2022/02/04 15:16:33;;;;;;;26.63;13.90;;;;;;;14.19;55.12;100518.22;5075169;28;20482;-76
2022/02/04 15:19:04;;;;;;;40.80;16.90;;;;;;;13.91;56.21;100505.47;5058591;28;20360;-76
2022/02/04 15:21:32;;;;;;;30.48;15.80;;;;;;;13.83;56.53;100510.13;5076103;28;20028;-76
2022/02/04 15:24:01;;;;;;;25.80;13.32;;;;;;;13.85;56.89;100510.56;5058419;28;20067;-75
2022/02/04 15:26:29;;;;;;;24.00;11.45;;;;;;;13.64;56.90;100510.25;5082369;28;20028;-76
2022/02/04 15:29:02;;;;;;;35.13;15.00;;;;;;;13.55;57.44;100510.50;5065357;28;20063;-75
2022/02/04 15:34:04;;;;;;;31.10;11.93;;;;;;;13.25;58.25;100504.00;5083229;28;20354;-76
2022/02/04 15:36:35;;;;;;;26.35;11.00;;;;;;;13.26;58.40;100486.06;5083598;28;20546;-76
2022/02/04 15:39:03;;;;;;;26.88;11.77;;;;;;;13.16;58.41;100495.06;5065484;28;20025;-77
2022/02/04 15:41:29;;;;;;;30.42;16.52;;;;;;;13.19;58.68;100494.28;5063169;28;20059;-76
2022/02/04 15:44:04;;;;;;;41.60;18.20;;;;;;;13.20;58.71;100495.91;5081406;28;20029;-77
2022/02/04 15:46:42;;;;;;;23.02;13.05;;;;;;;13.02;59.51;100478.84;5062480;28;20036;-77
2022/02/04 15:52:00;;;;;;;21.10;9.35;;;;;;;13.07;59.43;100490.50;5082308;28;20071;-76
2022/02/04 15:54:48;;;;;;;25.35;10.73;;;;;;;12.92;59.66;100488.63;5082354;28;20040;-76
2022/02/04 16:04:53;;;;;;;38.50;20.80;;;;;;;12.66;60.34;100488.53;5083190;28;20051;-76
2022/02/04 16:07:22;;;;;;;42.10;23.85;;;;;;;12.59;60.60;100489.22;5065584;28;20081;-76
2022/02/04 16:09:55;;;;;;;63.55;33.33;;;;;;;12.47;61.30;100476.25;5065499;28;20059;-77
2022/02/04 16:12:49;;;;;;;87.63;49.30;;;;;;;12.48;61.52;100489.00;5084537;28;20043;-76
2022/02/04 16:15:35;;;;;;;75.18;40.63;;;;;;;12.38;61.43;100489.59;5084369;28;20108;-76
2022/02/04 16:18:00;;;;;;;66.45;29.88;;;;;;;12.20;61.67;100477.28;5085306;28;20129;-77
2022/02/04 16:23:34;;;;;;;50.45;29.83;;;;;;;12.19;62.34;100481.22;5048824;28;20478;-76
2022/02/04 16:28:41;;;;;;;49.20;28.58;;;;;;;11.92;62.83;100483.84;5080411;28;20029;-76
2022/02/04 16:31:26;;;;;;;45.95;28.08;;;;;;;11.84;63.80;100481.28;5061976;28;20021;-77
2022/02/04 16:33:52;;;;;;;42.50;27.92;;;;;;;11.76;64.03;100485.84;5081313;28;20478;-76
2022/02/04 16:36:21;;;;;;;46.75;29.38;;;;;;;11.71;64.30;100488.91;5056713;28;20045;-77
2022/02/04 16:38:54;;;;;;;44.80;28.80;;;;;;;11.72;64.88;100485.78;5055905;28;20035;-76
2022/02/04 16:41:27;;;;;;;56.33;27.63;;;;;;;11.64;63.78;100485.97;5056613;28;20037;-76
2022/02/04 16:43:57;;;;;;;33.17;23.23;;;;;;;11.42;64.21;100482.66;5055827;28;20283;-76
2022/02/04 16:46:22;;;;;;;48.25;27.30;;;;;;;11.31;64.74;100481.59;5056779;28;20087;-76
2022/02/04 16:48:50;;;;;;;44.95;29.55;;;;;;;11.24;64.62;100471.09;5056496;28;20415;-76
2022/02/04 16:51:18;;;;;;;32.30;20.02;;;;;;;11.19;65.70;100490.06;5056140;28;20037;-76
2022/02/04 16:53:46;;;;;;;33.63;18.58;;;;;;;11.19;65.50;100490.88;5056865;28;20060;-76
2022/02/04 16:56:14;;;;;;;36.95;23.80;;;;;;;11.07;66.29;100481.78;5056178;28;20112;-78
2022/02/04 16:58:40;;;;;;;48.15;29.00;;;;;;;11.02;66.69;100480.06;5055455;28;20094;-76
2022/02/04 17:01:05;;;;;;;38.42;20.67;;;;;;;11.07;66.45;100487.34;5055756;28;20033;-76
2022/02/04 17:03:31;;;;;;;37.25;20.20;;;;;;;11.05;67.23;100484.13;5055778;28;20112;-76
2022/02/04 17:06:01;;;;;;;44.00;27.38;;;;;;;11.04;66.53;100488.06;5055914;28;20025;-76
2022/02/04 17:08:34;;;;;;;35.00;20.95;;;;;;;10.92;68.31;100473.06;5055746;28;20052;-77
2022/02/04 17:11:08;;;;;;;26.47;19.50;;;;;;;11.00;67.73;100463.72;5056901;28;20099;-76
2022/02/04 17:13:40;;;;;;;37.28;23.10;;;;;;;10.85;68.55;100470.09;5058068;28;20482;-77
2022/02/04 17:16:06;;;;;;;36.42;24.60;;;;;;;10.80;68.80;100462.00;5058651;28;20083;-76
2022/02/04 17:18:32;;;;;;;44.15;25.45;;;;;;;10.70;68.75;100457.75;5058674;28;20031;-76
2022/02/04 17:20:58;;;;;;;33.83;19.73;;;;;;;10.78;69.67;100466.31;5057191;28;20491;-76
2022/02/04 17:23:51;;;;;;;28.52;20.67;;;;;;;11.09;68.68;100463.56;5059239;28;20029;-77
2022/02/04 17:26:11;;;;;;;30.55;20.25;;;;;;;10.89;69.74;100472.97;5059123;28;20091;-77
2022/02/04 17:28:37;;;;;;;35.42;23.45;;;;;;;10.84;69.45;100478.81;5059879;28;20083;-77
2022/02/04 17:31:04;;;;;;;33.22;23.38;;;;;;;10.86;69.47;100480.03;5058476;28;20099;-76
2022/02/04 17:33:30;;;;;;;39.63;26.88;;;;;;;10.68;69.40;100476.78;5057378;28;20032;-76
2022/02/04 17:35:57;;;;;;;44.03;28.10;;;;;;;10.84;69.83;100485.19;5040608;28;20407;-77
2022/02/04 17:38:27;;;;;;;38.28;24.30;;;;;;;10.65;70.33;100482.25;5058084;28;20082;-77
2022/02/04 17:40:57;;;;;;;43.55;30.52;;;;;;;10.51;71.38;100479.09;5058660;28;20124;-77
2022/02/04 17:43:24;;;;;;;39.42;25.83;;;;;;;10.56;71.35;100484.41;5058735;28;20395;-77
2022/02/04 17:45:50;;;;;;;46.92;32.72;;;;;;;10.53;71.37;100479.53;5057995;28;20033;-76
2022/02/04 17:48:25;;;;;;;41.85;29.17;;;;;;;10.31;72.24;100473.38;5059137;28;20058;-76
2022/02/04 17:53:24;;;;;;;52.40;29.67;;;;;;;10.34;72.39;100486.59;5061337;28;20053;-77
2022/02/04 17:55:56;;;;;;;50.53;30.27;;;;;;;10.32;72.66;100483.34;5056251;28;20033;-76
2022/02/04 18:01:12;;;;;;;49.05;29.65;;;;;;;10.37;72.07;100483.09;5056593;28;20036;-76